Port Morien, Canada
Current Conditions -  °F | °C
As of 4:00 AM on Friday 31 Oct 2014 (Local Time) from CYQY Reporting Station
Few Clouds Few Clouds  
Wind Chill: 28°   Ceiling: Unl
Heat Index: 34°   Visibility: 15mi
Dew Point: 34°   Wind: 7mph
Humidity: 100%   Direction: 250°WSW
Pressure: 29.9"   Gusts: NA
Location:  46.13°N, 59.88°W
Report Text: CYQY 310700Z 25006KT 15SM FEW220 01/01 A2990 RMK CI2 SLP128
Loading
Personal Weather Stations






























Interactive Weather Map
Tropical Storm Tracking
New forecast layout! Learn more

10-Day Weather Forecast

Advertisements
Track Severe Weather on mobile